Ferndown, United Kingdom
Current Conditions -  °F | °C
As of 9:20 AM on Sunday 26 Oct 2014 (Local Time) from EGHH Reporting Station
Broken Clouds Broken Clouds  
Wind Chill: 57°   Ceiling: 2900
Heat Index: 57°   Visibility: 6mi
Dew Point: 48°   Wind: 9mph
Humidity: 72%   Direction: 220°SW
Pressure: 30.15"   Gusts: NA
Location:  50.78°N, 1.88°W
Report Text: EGHH 260820Z 22008KT 9999 BKN029 14/09 Q1021
Loading
Personal Weather Stations






























Interactive Weather Map
Tropical Storm Tracking
New forecast layout! Learn more

10-Day Weather Forecast

Advertisements
Track Severe Weather on mobile